< < Back
Terminal Aerodrome Forecast


Current Version              Previous Versions:   1  2  3  4  5  6  7  8  9  

Terminal Aerodrome Forecast

777
FTUS42 KCAE 250234 AAA
TAFCAE
TAF AMD
KCAE 250234Z 2503/2524 VRB03KT P6SM SKC
     FM251400 23006KT P6SM SCT060=



Latest METAR

713
SAUS80 KWBC 250300 CCA
MTRCAE
METAR KCAE 250256Z 00000KT 10SM CLR 21/16 A3015 RMK AO2 SLP209 T02060156
53018


USA.gov is the U.S. government's official web portal to all federal, state and local government web resources and services.